Create Custom Reports and Graphics: Custom Report

Siberia 8700'

OV

5/20/24 9:30 PM (-07:00)
Updated Every 15 Minutes
Temp 34.6 °F   2.1
RH 46 %   46
Wet Bulb 27.7 °F   7.9
Dew Pt 16.0 °F   18.6
Wind Dir NNE | 29 °
Wind Spd 15.7 mph   1.9
Wind Gust 26.5 mph   4.8
WindChill 25.5 °F   1.3
Daily Min Temp 30.1 °F   6.4
Daily Max Temp 45.3 °F   0.9

Last 24 Hours

OV-Siberia 8700'

Hourly Data | America/Los_Angeles
as of 5/20/24 9:42 PM PDT
Date & Time Temp (°F) RH (%) Dew Pt (°F) Wet Bulb (°F) Wind Dir (°) Wind Spd (mph) Wind Gust (mph) WindChill (°F) Daily Min Temp (°F) Daily Max Temp (°F)
5/20/24 - 2100 34.9 50 18.1 28.4 NE | 37 14.4 26.5 27.0 30.1 45.3
5/20/24 - 2000 36.7 55 21.9 30.6 NE | 36 11.1 20.5 29.9 30.1 45.3
5/20/24 - 1900 38.0 61 25.7 32.6 WNW | 285 7.5 18.1 34.8 30.1 45.3
5/20/24 - 1800 39.5 72 31.3 35.6 SW | 215 18.2 31.6 31.2 30.1 45.3
5/20/24 - 1700 41.4 67 31.3 36.6 SSW | 209 17.9 29.7 32.7 30.1 45.3
5/20/24 - 1600 40.7 68 30.8 36.0 SSW | 211 19.1 27.1 33.4 30.1 45.3
5/20/24 - 1500 41.2 69 31.9 36.8 SSW | 210 17.8 28.3 33.1 30.1 45.3
5/20/24 - 1400 41.9 67 31.9 37.1 SSW | 205 17.3 31.0 34.6 30.1 45.3
5/20/24 - 1300 43.1 59 29.6 36.7 SSW | 199 16.6 26.3 34.9 30.1 45.3
5/20/24 - 1200 42.4 46 23.3 34.1 SSW | 200 13.6 24.5 34.0 30.1 43.3
5/20/24 - 1100 40.7 47 21.9 32.8 SSW | 197 10.8 19.3 32.5 30.1 40.8
5/20/24 - 1000 38.8 54 23.6 32.3 NE | 38 1.3 9.2 35.2 30.1 39.7
5/20/24 - 0900 33.7 73 25.9 30.3 NE | 40 2.5 6.1 31.5 30.1 38.8
5/20/24 - 0800 32.8 67 22.9 28.8 NE | 36 6.7 11.1 25.9 30.1 38.8
5/20/24 - 0700 31.5 69 22.6 28.0 NNE | 28 7.9 11.3 24.3 30.1 38.8
5/20/24 - 0600 30.5 80 25.0 28.2 NNE | 30 7.4 12.1 24.2 30.2 38.8
5/20/24 - 0500 32.4 92 30.3 31.5 NNE | 30 7.2 9.6 26.9 32.4 38.8
5/20/24 - 0400 34.2 82 29.2 31.9 NNE | 31 6.8 9.7 28.8 33.9 38.8
5/20/24 - 0300 34.6 76 27.7 31.5 NNE | 26 10.8 15.4 26.7 33.9 38.8
5/20/24 - 0200 35.2 49 18.1 28.6 NNE | 15 5.8 13.4 32.6 35.1 38.8
5/20/24 - 0100 37.4 31 9.8 27.8 WSW | 238 1.3 6.7 37.3 37.4 38.8
5/20/24 - 0000 38.6 28 8.3 28.2 S | 181 2.7 9.1 35.8 35.9 46.2
5/19/24 - 2300 37.5 60 24.9 32.1 SSW | 211 8.3 11.3 31.0 35.9 46.2
5/19/24 - 2200 36.3 98 35.8 36.1 SSW | 209 15.2 27.6 27.5 36.1 46.2
5/19/24 - 2100 36.9 96 35.9 36.4 SSW | 196 21.1 28.1 27.1 36.9 46.2
Max 43.1 98 35.9 37.1 - 21.1 31.6 37.3 37.4 46.2
Avg 37.2 65 25.5 32.4 - 10.8 18.5 30.9 - -
Min 30.5 28 8.3 27.8 - 1.3 6.1 24.2 30.1 38.8

Last 30 Days

OV-Siberia 8700'

Daily Data | America/Los_Angeles
as of 5/20/24 9:42 PM PDT
Date Daily Max Temp (°F) Time of Max Temp Daily Min Temp (°F) Time of Min Temp Wind Spd (mph) Daily Max Wind (mph) Time of Max Wind Max Wind Dir (°) Wet Bulb (°F) WetB Hrs <28F (hrs)
5/19/24 46.2 1713 35.9 2203 28.2 51.3 0543 S | 180 37.8 0.4
5/18/24 55.9 1414 41.0 2224 17.1 46.8 1555 WSW | 258 42.6 0.0
5/17/24 58.0 1449 45.8 0534 16.1 31.6 0824 S | 178 42.0 0.0
5/16/24 59.4 1530 47.0 0217 15.8 36.4 1702 WSW | 250 41.6 0.0
5/15/24 59.6 1625 43.1 0734 12.0 36.1 0836 NE | 54 39.1 0.0
5/14/24 61.1 1527 44.3 0207 11.6 26.5 1911 SSW | 202 41.8 0.0
5/13/24 57.8 1452 44.3 0422 8.4 34.6 1713 W | 270 40.6 0.0
5/12/24 56.1 1318 45.1 2125 8.3 31.4 1730 S | 182 40.8 0.0
5/11/24 56.9 1645 37.9 0531 7.1 21.7 1822 W | 266 37.0 0.0
5/10/24 46.3 1718 32.2 0542 15.4 40.0 0009 NNE | 32 33.2 0.0
5/9/24 40.7 1857 24.4 0558 35.9 80.4 0027 NNE | 27 28.9 10.5
5/8/24 33.5 1651 19.7 0611 35.1 76.8 2337 NNE | 16 23.3 24.0
5/7/24 45.3 1543 22.4 0543 18.3 55.6 0116 SSW | 202 26.4 15.7
5/6/24 30.3 1655 19.1 0322 25.4 67.2 1701 SSW | 196 25.3 16.3
5/5/24 21.1 1440 13.6 0557 31.6 68.3 0123 ESE | 123 17.2 24.0
5/4/24 36.0 0005 14.3 2107 52.5 114.7 0925 SW | 218 23.5 14.7
5/3/24 46.3 1611 31.2 0551 19.2 41.1 2326 S | 182 34.4 0.0
5/2/24 43.1 1422 33.1 2229 21.8 52.3 1410 W | 268 31.9 3.0
5/1/24 45.4 1631 23.3 0605 11.4 30.7 1825 SSW | 200 27.0 12.4
4/30/24 41.2 1458 30.7 2136 21.2 43.9 1543 SSE | 168 25.3 17.3
4/29/24 39.4 1446 27.0 0605 23.8 50.8 1543 S | 177 28.6 11.3
4/28/24 39.9 1516 29.1 0001 13.9 39.2 1757 ESE | 110 31.4 0.0
4/27/24 33.8 1525 23.3 0259 12.5 40.0 0108 NE | 55 29.4 7.8
4/26/24 29.4 1403 24.2 2135 21.9 64.9 0221 SW | 215 26.4 20.8
4/25/24 35.1 1333 28.2 1915 20.2 57.2 1718 S | 185 28.8 6.5
4/24/24 39.8 1335 29.4 2119 20.3 39.1 0042 SE | 127 31.8 2.5
4/23/24 45.1 1138 33.5 2359 17.7 42.9 1701 SSW | 205 38.1 0.0
4/22/24 51.9 1640 42.9 2126 17.5 45.5 1546 SSE | 150 37.4 0.0
4/21/24 52.9 1704 43.6 0311 15.5 35.7 1523 WSW | 242 35.4 0.0
4/20/24 48.7 1614 38.4 0604 17.1 37.6 1506 ESE | 111 35.3 0.0
Max 61.1 - 47.0 - 52.5 114.7 - - 42.6 24.0
Avg - - - - 19.8 - - - 32.7 -
Min 21.1 - 13.6 - 7.1 21.7 - - 17.2 0.0
Calm: 0.0%
Calm: 0.0%